Time;durP1;ratioP1;P1;durP2;ratioP2;P2;SDS_P1;SDS_P2;PMS_P1;PMS_P2;Temp;Humidity;BMP_temperature;BMP_pressure;BME280_temperature;BME280_humidity;BME280_pressure;Samples;Min_cycle;Max_cycle;Signal;HPM_P1;HPM_P2
2022/07/15 00:01:38;;;;;;;;;7.25;7.25;;;;;-146.44;100.00;58906.56;5075766;27;45415;-69
2022/07/15 00:04:03;;;;;;;;;7.75;7.25;;;;;-146.44;100.00;58906.56;5075860;28;45428;-68
2022/07/15 00:06:29;;;;;;;;;8.50;8.50;;;;;-146.44;100.00;58906.56;5079083;28;45418;-69
2022/07/15 00:08:55;;;;;;;;;11.50;11.50;;;;;-146.44;100.00;58906.56;5078945;28;45363;-69
2022/07/15 00:11:20;;;;;;;;;9.50;8.75;;;;;-146.44;100.00;58906.56;5079196;28;45463;-69
2022/07/15 00:13:45;;;;;;;;;7.75;7.75;;;;;-146.44;100.00;58906.56;5078910;28;45434;-69
2022/07/15 00:16:12;;;;;;;;;9.00;9.00;;;;;-146.44;100.00;58906.56;5078786;27;45365;-68
2022/07/15 00:18:37;;;;;;;;;7.75;7.75;;;;;-146.44;100.00;58906.56;5078890;28;45447;-69
2022/07/15 00:21:03;;;;;;;;;5.00;5.00;;;;;-146.44;100.00;58906.56;5078809;28;45483;-69
2022/07/15 00:23:29;;;;;;;;;9.00;6.75;;;;;-146.44;100.00;58906.56;5078888;27;45705;-69
2022/07/15 00:25:55;;;;;;;;;7.00;7.00;;;;;-146.44;100.00;58906.56;5078760;28;46020;-69
2022/07/15 00:28:20;;;;;;;;;6.25;6.25;;;;;-146.44;100.00;58906.56;5078599;27;45379;-69
2022/07/15 00:30:45;;;;;;;;;5.25;5.25;;;;;-146.44;100.00;58906.56;5078884;27;45362;-68
2022/07/15 00:33:11;;;;;;;;;8.50;6.75;;;;;-146.44;100.00;58906.56;5078989;28;45370;-68
2022/07/15 00:35:38;;;;;;;;;6.25;6.00;;;;;-146.44;100.00;58906.56;5078698;28;46190;-68
2022/07/15 00:38:04;;;;;;;;;7.50;7.50;;;;;-146.44;100.00;58906.56;5079082;28;45388;-68
2022/07/15 00:40:30;;;;;;;;;9.00;7.25;;;;;-146.44;100.00;58906.56;5078755;27;45440;-68
2022/07/15 00:42:55;;;;;;;;;7.50;7.50;;;;;-146.44;100.00;58906.56;5078697;28;45655;-69
2022/07/15 00:45:24;;;;;;;;;6.00;6.00;;;;;-146.44;100.00;58906.56;5078452;27;45489;-68
2022/07/15 00:47:53;;;;;;;;;6.00;6.00;;;;;-146.44;100.00;58906.56;5078524;27;45410;-68
2022/07/15 00:50:21;;;;;;;;;4.75;4.75;;;;;-146.44;100.00;58906.56;5078450;27;45409;-68
2022/07/15 00:52:54;;;;;;;;;7.00;7.00;;;;;-146.44;100.00;58906.56;5078384;28;45444;-69
2022/07/15 00:55:20;;;;;;;;;8.75;8.75;;;;;-146.44;100.00;58906.56;5078689;27;45340;-68
2022/07/15 00:57:49;;;;;;;;;7.00;7.00;;;;;-146.44;100.00;58906.56;5078227;27;45464;-69
2022/07/15 01:00:14;;;;;;;;;2.00;2.00;;;;;-146.44;100.00;58906.56;5078460;28;45521;-68
2022/07/15 01:02:43;;;;;;;;;4.50;2.25;;;;;-146.44;100.00;58906.56;5078088;28;45439;-69
2022/07/15 01:05:10;;;;;;;;;5.75;5.75;;;;;-146.44;100.00;58906.56;5078186;28;45512;-68
2022/07/15 01:07:36;;;;;;;;;5.00;5.00;;;;;-146.44;100.00;58906.56;5078109;28;45493;-69
2022/07/15 01:10:01;;;;;;;;;5.50;5.50;;;;;-146.44;100.00;58906.56;5078316;28;45464;-69
2022/07/15 01:12:27;;;;;;;;;7.25;7.25;;;;;-146.44;100.00;58906.56;5078171;28;45413;-68
2022/07/15 01:14:53;;;;;;;;;7.25;6.25;;;;;-146.44;100.00;58906.56;5077525;27;46018;-69
2022/07/15 01:17:18;;;;;;;;;7.00;6.25;;;;;-146.44;100.00;58906.56;5079240;28;45913;-68
2022/07/15 01:19:43;;;;;;;;;6.25;6.25;;;;;-146.44;100.00;58906.56;5078379;28;45384;-68
2022/07/15 01:22:09;;;;;;;;;5.00;5.00;;;;;-146.44;100.00;58906.56;5078493;27;45509;-68
2022/07/15 01:24:34;;;;;;;;;7.00;6.00;;;;;-146.44;100.00;58906.56;5077587;28;46289;-68
2022/07/15 01:27:00;;;;;;;;;6.25;5.00;;;;;-146.44;100.00;58906.56;5077667;28;45451;-68
2022/07/15 01:29:27;;;;;;;;;6.75;5.25;;;;;-146.44;100.00;58906.56;5077856;28;45470;-68
2022/07/15 01:31:53;;;;;;;;;7.50;6.50;;;;;-146.44;100.00;58906.56;5077769;27;45377;-69
2022/07/15 01:34:19;;;;;;;;;3.50;3.50;;;;;-146.44;100.00;58906.56;5077590;27;45418;-68
2022/07/15 01:36:44;;;;;;;;;5.00;4.50;;;;;-146.44;100.00;58906.56;5077766;27;45391;-68
2022/07/15 01:39:09;;;;;;;;;4.00;4.00;;;;;-146.44;100.00;58906.56;5076272;28;45491;-68
2022/07/15 01:41:35;;;;;;;;;6.25;6.00;;;;;-146.44;100.00;58906.56;5075901;28;45564;-68
2022/07/15 01:44:00;;;;;;;;;6.25;6.25;;;;;-146.44;100.00;58906.56;5077175;28;46266;-69
2022/07/15 01:46:25;;;;;;;;;6.50;5.00;;;;;-146.44;100.00;58906.56;5077397;28;45469;-68
2022/07/15 01:51:34;;;;;;;;;3.50;3.50;;;;;-146.44;100.00;58906.56;5077503;28;45291;-68
2022/07/15 01:54:00;;;;;;;;;6.25;4.25;;;;;-146.44;100.00;58906.56;5077290;27;45380;-69
2022/07/15 01:56:26;;;;;;;;;3.25;3.25;;;;;-146.44;100.00;58906.56;5077257;28;45439;-68
2022/07/15 01:58:51;;;;;;;;;4.75;4.75;;;;;-146.44;100.00;58906.56;5076127;28;45518;-68
2022/07/15 02:01:17;;;;;;;;;5.00;4.25;;;;;-146.44;100.00;58906.56;5077318;27;45628;-68
2022/07/15 02:03:44;;;;;;;;;5.00;5.00;;;;;-146.44;100.00;58906.56;5077210;27;46070;-68
2022/07/15 02:06:09;;;;;;;;;4.50;4.50;;;;;-146.44;100.00;58906.56;5077288;28;45432;-68
2022/07/15 02:08:34;;;;;;;;;4.75;4.75;;;;;-146.44;100.00;58906.56;5075923;28;45399;-68
2022/07/15 02:11:00;;;;;;;;;6.00;5.00;;;;;-146.44;100.00;58906.56;5077126;28;45581;-69
2022/07/15 02:13:25;;;;;;;;;4.50;4.50;;;;;-146.44;100.00;58906.56;5077095;28;46024;-69
2022/07/15 02:15:51;;;;;;;;;4.00;4.00;;;;;-146.44;100.00;58906.56;5076827;28;45427;-68
2022/07/15 02:18:16;;;;;;;;;3.75;2.75;;;;;-146.44;100.00;58906.56;5077090;28;45408;-69
2022/07/15 02:20:41;;;;;;;;;4.00;4.00;;;;;-146.44;100.00;58906.56;5076919;28;45433;-69
2022/07/15 02:23:07;;;;;;;;;4.75;2.25;;;;;-146.44;100.00;58906.56;5076815;28;45939;-68
2022/07/15 02:25:34;;;;;;;;;5.00;5.00;;;;;-146.44;100.00;58906.56;5076921;28;45371;-68
2022/07/15 02:28:02;;;;;;;;;5.00;4.00;;;;;-146.44;100.00;58906.56;5076040;27;45492;-68
2022/07/15 02:30:31;;;;;;;;;6.00;5.00;;;;;-146.44;100.00;58906.56;5076868;27;45379;-68
2022/07/15 02:32:56;;;;;;;;;4.00;4.00;;;;;-146.44;100.00;58906.56;5076626;28;45488;-68
2022/07/15 02:35:22;;;;;;;;;4.00;4.00;;;;;-146.44;100.00;58906.56;5076732;28;45560;-68
2022/07/15 02:37:48;;;;;;;;;4.00;4.00;;;;;-146.44;100.00;58906.56;5076666;27;45327;-69
2022/07/15 02:40:13;;;;;;;;;4.50;4.00;;;;;-146.44;100.00;58906.56;5076784;27;45340;-68
2022/07/15 02:42:39;;;;;;;;;4.75;4.75;;;;;-146.44;100.00;58906.56;5075188;28;45396;-69
2022/07/15 02:45:05;;;;;;;;;3.00;3.00;;;;;-146.44;100.00;58906.56;5076444;28;45418;-68
2022/07/15 02:47:31;;;;;;;;;4.00;4.00;;;;;-146.44;100.00;58906.56;5076692;27;45472;-69
2022/07/15 02:49:56;;;;;;;;;3.50;3.50;;;;;-146.44;100.00;58906.56;5076615;28;45409;-68
2022/07/15 02:52:21;;;;;;;;;3.00;3.00;;;;;-146.44;100.00;58906.56;5076430;28;45480;-69
2022/07/15 02:54:47;;;;;;;;;4.00;4.00;;;;;-146.44;100.00;58906.56;5076533;27;45406;-68
2022/07/15 02:57:13;;;;;;;;;4.75;4.00;;;;;-146.44;100.00;58906.56;5076475;28;45420;-68
2022/07/15 02:59:38;;;;;;;;;4.75;3.75;;;;;-146.44;100.00;58906.56;5076611;28;45413;-68
2022/07/15 03:02:04;;;;;;;;;5.00;4.00;;;;;-146.44;100.00;58906.56;5076284;28;46215;-69
2022/07/15 03:04:29;;;;;;;;;4.00;4.00;;;;;-146.44;100.00;58906.56;5076426;28;45449;-68
2022/07/15 03:06:55;;;;;;;;;6.00;6.00;;;;;-146.44;100.00;58906.56;5076537;28;45605;-69
2022/07/15 03:09:20;;;;;;;;;4.25;4.25;;;;;-146.44;100.00;58906.56;5076470;28;45663;-70
2022/07/15 03:11:45;;;;;;;;;3.75;3.25;;;;;-146.44;100.00;58906.56;5076368;28;45528;-70
2022/07/15 03:14:11;;;;;;;;;3.25;3.25;;;;;-146.44;100.00;58906.56;5076072;27;45517;-70
2022/07/15 03:16:36;;;;;;;;;4.25;4.25;;;;;-146.44;100.00;58906.56;5076277;27;45405;-70
2022/07/15 03:19:02;;;;;;;;;3.50;3.50;;;;;-146.44;100.00;58906.56;5076279;28;45472;-68
2022/07/15 03:21:27;;;;;;;;;5.25;4.50;;;;;-146.44;100.00;58906.56;5075985;28;46188;-69
2022/07/15 03:23:54;;;;;;;;;4.25;4.25;;;;;-146.44;100.00;58906.56;5076381;28;45546;-70
2022/07/15 03:26:20;;;;;;;;;5.25;4.00;;;;;-146.44;100.00;58906.56;5076266;28;45357;-67
2022/07/15 03:28:46;;;;;;;;;7.25;7.25;;;;;-146.44;100.00;58906.56;5076029;28;45475;-68
2022/07/15 03:31:11;;;;;;;;;4.25;4.25;;;;;-146.44;100.00;58906.56;5075871;28;46422;-69
2022/07/15 03:33:36;;;;;;;;;3.50;3.50;;;;;-146.44;100.00;58906.56;5076101;28;45456;-69
2022/07/15 03:36:02;;;;;;;;;4.00;3.50;;;;;-146.44;100.00;58906.56;5076200;28;45445;-69
2022/07/15 03:38:27;;;;;;;;;5.00;5.00;;;;;-146.44;100.00;58906.56;5075728;28;45496;-69
2022/07/15 03:40:53;;;;;;;;;4.50;4.00;;;;;-146.44;100.00;58906.56;5075781;28;45427;-69
2022/07/15 03:43:18;;;;;;;;;6.75;5.75;;;;;-146.44;100.00;58906.56;5075808;27;45363;-69
2022/07/15 03:45:43;;;;;;;;;5.00;4.50;;;;;-146.44;100.00;58906.56;5074511;28;45423;-69
2022/07/15 03:48:09;;;;;;;;;4.25;4.25;;;;;-146.44;100.00;58906.56;5075673;28;45527;-69
2022/07/15 03:50:35;;;;;;;;;5.25;5.25;;;;;-146.44;100.00;58906.56;5091258;27;45460;-69
2022/07/15 03:53:00;;;;;;;;;5.00;4.00;;;;;-146.44;100.00;58906.56;5075624;28;45444;-69
2022/07/15 03:55:26;;;;;;;;;4.00;4.00;;;;;-146.44;100.00;58906.56;5075759;28;45472;-69
2022/07/15 03:57:51;;;;;;;;;5.00;4.00;;;;;-146.44;100.00;58906.56;5074151;28;45427;-69
2022/07/15 04:00:16;;;;;;;;;6.25;4.25;;;;;-146.44;100.00;58906.56;5075464;28;45438;-69
2022/07/15 04:02:42;;;;;;;;;6.00;6.00;;;;;-146.44;100.00;58906.56;5075365;27;45458;-69
2022/07/15 04:05:08;;;;;;;;;4.00;4.00;;;;;-146.44;100.00;58906.56;5075544;28;45379;-69
2022/07/15 04:07:33;;;;;;;;;4.00;4.00;;;;;-146.44;100.00;58906.56;5075609;28;45627;-69
2022/07/15 04:09:58;;;;;;;;;4.25;4.25;;;;;-146.44;100.00;58906.56;5075113;28;46024;-69
2022/07/15 04:12:24;;;;;;;;;4.25;4.25;;;;;-146.44;100.00;58906.56;5075444;27;45373;-69
2022/07/15 04:14:49;;;;;;;;;4.00;4.00;;;;;-146.44;100.00;58906.56;5075339;27;45335;-68
2022/07/15 04:17:14;;;;;;;;;5.00;3.00;;;;;-146.44;100.00;58906.56;5075341;28;45381;-69
2022/07/15 04:19:40;;;;;;;;;5.00;5.00;;;;;-146.44;100.00;58906.56;5075043;27;45369;-69
2022/07/15 04:22:05;;;;;;;;;4.00;4.00;;;;;-146.44;100.00;58906.56;5075074;28;45376;-69
2022/07/15 04:24:31;;;;;;;;;5.00;5.00;;;;;-146.44;100.00;58906.56;5075401;27;45410;-69
2022/07/15 04:26:56;;;;;;;;;3.50;3.50;;;;;-146.44;100.00;58906.56;5075319;28;45647;-69
2022/07/15 04:29:21;;;;;;;;;5.50;5.50;;;;;-146.44;100.00;58906.56;5074964;27;45417;-69
2022/07/15 04:31:47;;;;;;;;;5.00;5.00;;;;;-146.44;100.00;58906.56;5075016;28;45437;-69
2022/07/15 04:34:12;;;;;;;;;4.00;4.00;;;;;-146.44;100.00;58906.56;5075220;28;45359;-69
2022/07/15 04:36:39;;;;;;;;;5.00;5.00;;;;;-146.44;100.00;58906.56;5075223;28;45687;-69
2022/07/15 04:39:04;;;;;;;;;5.75;5.75;;;;;-146.44;100.00;58906.56;5074795;28;45545;-69
2022/07/15 04:41:29;;;;;;;;;6.75;6.75;;;;;-146.44;100.00;58906.56;5075130;28;45500;-68
2022/07/15 04:43:55;;;;;;;;;5.75;5.75;;;;;-146.44;100.00;58906.56;5075003;28;45479;-69
2022/07/15 04:46:20;;;;;;;;;7.00;7.00;;;;;-146.44;100.00;58906.56;5074891;28;45460;-69
2022/07/15 04:51:29;;;;;;;;;6.75;5.25;;;;;-146.44;100.00;58906.56;5077518;28;45441;-70
2022/07/15 04:53:55;;;;;;;;;6.25;6.25;;;;;-146.44;100.00;58906.56;5078467;28;45498;-69
2022/07/15 04:56:20;;;;;;;;;7.25;6.50;;;;;-146.44;100.00;58906.56;5078527;28;45462;-69
2022/07/15 04:58:45;;;;;;;;;6.25;5.00;;;;;-146.44;100.00;58906.56;5078015;28;46571;-69
2022/07/15 05:01:12;;;;;;;;;5.25;5.25;;;;;-146.44;100.00;58906.56;5077952;28;45440;-68
2022/07/15 05:03:37;;;;;;;;;5.50;5.50;;;;;-146.44;100.00;58906.56;5078212;27;45422;-68
2022/07/15 05:06:03;;;;;;;;;6.75;6.75;;;;;-146.44;100.00;58906.56;5078201;28;45620;-69
2022/07/15 05:08:29;;;;;;;;;5.75;5.75;;;;;-146.44;100.00;58906.56;5077951;27;46012;-69
2022/07/15 05:10:55;;;;;;;;;8.00;7.00;;;;;-146.44;100.00;58906.56;5078238;28;45511;-69
2022/07/15 05:13:20;;;;;;;;;8.00;7.25;;;;;-146.44;100.00;58906.56;5077940;28;45330;-69
2022/07/15 05:15:46;;;;;;;;;7.25;7.25;;;;;-146.44;100.00;58906.56;5077902;27;45632;-68
2022/07/15 05:18:11;;;;;;;;;6.25;5.00;;;;;-146.44;100.00;58906.56;5077764;28;45393;-69
2022/07/15 05:20:36;;;;;;;;;5.25;4.50;;;;;-146.44;100.00;58906.56;5077603;28;45472;-69
2022/07/15 05:23:03;;;;;;;;;3.75;3.75;;;;;-146.44;100.00;58906.56;5078025;27;45631;-69
2022/07/15 05:25:28;;;;;;;;;6.00;6.00;;;;;-146.44;100.00;58906.56;5078062;27;45508;-69
2022/07/15 05:27:54;;;;;;;;;5.00;5.00;;;;;-146.44;100.00;58906.56;5077406;27;45833;-69
2022/07/15 05:30:19;;;;;;;;;6.25;6.25;;;;;-146.44;100.00;58906.56;5077961;27;45359;-69
2022/07/15 05:32:45;;;;;;;;;7.00;6.00;;;;;-146.44;100.00;58906.56;5077838;27;45671;-68
2022/07/15 05:35:14;;;;;;;;;7.25;5.25;;;;;-146.44;100.00;58906.56;5077790;28;45555;-69
2022/07/15 05:37:40;;;;;;;;;6.00;6.00;;;;;-146.44;100.00;58906.56;5077552;27;45456;-69
2022/07/15 05:40:08;;;;;;;;;6.25;6.25;;;;;-146.44;100.00;58906.56;5077439;27;45395;-69
2022/07/15 05:42:33;;;;;;;;;5.75;5.75;;;;;-146.44;100.00;58906.56;5077705;27;45464;-69
2022/07/15 05:44:59;;;;;;;;;5.00;5.00;;;;;-146.44;100.00;58906.56;5092978;27;45631;-69
2022/07/15 05:47:24;;;;;;;;;7.00;5.25;;;;;-146.44;100.00;58906.56;5077280;28;46180;-68
2022/07/15 05:49:49;;;;;;;;;4.25;4.25;;;;;-146.44;100.00;58906.56;5076084;28;45537;-68
2022/07/15 05:52:15;;;;;;;;;6.00;6.00;;;;;-146.44;100.00;58906.56;5077700;28;45505;-68
2022/07/15 05:54:40;;;;;;;;;8.00;7.33;;;;;-146.44;100.00;58906.56;5077347;28;45395;-68
2022/07/15 05:57:05;;;;;;;;;6.67;6.67;;;;;-146.44;100.00;58906.56;5077183;27;45479;-68
2022/07/15 05:59:31;;;;;;;;;4.00;3.50;;;;;-146.44;100.00;58906.56;5077377;28;45445;-68
2022/07/15 06:01:57;;;;;;;;;6.75;5.00;;;;;-146.44;100.00;58906.56;5076255;28;45417;-68
2022/07/15 06:04:26;;;;;;;;;6.75;6.75;;;;;-146.44;100.00;58906.56;5077279;28;45554;-68
2022/07/15 06:06:52;;;;;;;;;3.75;3.75;;;;;-146.44;100.00;58906.56;5077070;28;45511;-68
2022/07/15 06:09:17;;;;;;;;;6.75;6.75;;;;;-146.44;100.00;58906.56;5077010;28;45444;-68
2022/07/15 06:11:43;;;;;;;;;6.00;6.00;;;;;-146.44;100.00;58906.56;5077105;27;45392;-68
2022/07/15 06:14:08;;;;;;;;;7.25;4.25;;;;;-146.44;100.00;58906.56;5077006;28;45501;-68
2022/07/15 06:16:33;;;;;;;;;7.00;7.00;;;;;-146.44;100.00;58906.56;5077090;28;45803;-68
2022/07/15 06:18:59;;;;;;;;;8.50;7.25;;;;;-146.44;100.00;58906.56;5077087;28;45422;-68
2022/07/15 06:21:24;;;;;;;;;8.75;8.00;;;;;-146.44;100.00;58906.56;5077081;28;45397;-68
2022/07/15 06:23:50;;;;;;;;;10.75;7.25;;;;;-146.44;100.00;58906.56;5076795;28;45396;-68
2022/07/15 06:26:16;;;;;;;;;7.25;5.25;;;;;-146.44;100.00;58906.56;5076742;27;47117;-68
2022/07/15 06:28:41;;;;;;;;;7.50;7.00;;;;;-146.44;100.00;58906.56;5076729;27;45341;-68
2022/07/15 06:31:07;;;;;;;;;5.75;4.75;;;;;-146.44;100.00;58906.56;5076784;27;45348;-68
2022/07/15 06:33:32;;;;;;;;;7.00;6.50;;;;;-146.44;100.00;58906.56;5076831;27;45425;-68
2022/07/15 06:35:58;;;;;;;;;7.25;7.25;;;;;-146.44;100.00;58906.56;5076733;28;45461;-68
2022/07/15 06:38:23;;;;;;;;;6.00;5.25;;;;;-146.44;100.00;58906.56;5076541;28;45450;-68
2022/07/15 06:40:49;;;;;;;;;7.75;7.00;;;;;-146.44;100.00;58906.56;5077682;27;45411;-68
2022/07/15 06:43:14;;;;;;;;;9.00;6.75;;;;;-146.44;100.00;58906.56;5076632;28;45323;-69
2022/07/15 06:45:39;;;;;;;;;6.00;6.00;;;;;-146.44;100.00;58906.56;5076348;28;45719;-68
2022/07/15 06:48:06;;;;;;;;;7.50;7.50;;;;;-146.44;100.00;58906.56;5076560;28;45410;-68
2022/07/15 06:50:31;;;;;;;;;10.00;10.00;;;;;-146.44;100.00;58906.56;5076489;28;45374;-68
2022/07/15 06:52:56;;;;;;;;;8.00;6.00;;;;;-146.44;100.00;58906.56;5076709;28;45556;-67
2022/07/15 06:55:22;;;;;;;;;6.50;6.50;;;;;-146.44;100.00;58906.56;5076316;28;45614;-69
2022/07/15 06:57:47;;;;;;;;;7.25;6.50;;;;;-146.44;100.00;58906.56;5076349;28;45462;-69
2022/07/15 07:00:14;;;;;;;;;6.50;6.50;;;;;-146.44;100.00;58906.56;5076567;28;45471;-68
2022/07/15 07:02:40;;;;;;;;;6.00;5.75;;;;;-146.44;100.00;58906.56;5076376;28;45637;-69
2022/07/15 07:05:06;;;;;;;;;6.00;6.00;;;;;-146.44;100.00;58906.56;5076127;27;46048;-69
2022/07/15 07:07:32;;;;;;;;;5.50;5.50;;;;;-146.44;100.00;58906.56;5076213;28;45385;-69
2022/07/15 07:09:57;;;;;;;;;8.25;7.25;;;;;-146.44;100.00;58906.56;5076308;28;45914;-69
2022/07/15 07:12:22;;;;;;;;;9.00;8.25;;;;;-146.44;100.00;58906.56;5076016;28;45381;-69
2022/07/15 07:14:48;;;;;;;;;7.75;7.75;;;;;-146.44;100.00;58906.56;5075673;28;46220;-69
2022/07/15 07:17:13;;;;;;;;;7.00;7.00;;;;;-146.44;100.00;58906.56;5076239;27;45387;-69
2022/07/15 07:19:39;;;;;;;;;5.25;5.25;;;;;-146.44;100.00;58906.56;5076249;28;45471;-69
2022/07/15 07:22:04;;;;;;;;;6.50;5.75;;;;;-146.44;100.00;58906.56;5076071;27;45368;-69
2022/07/15 07:24:30;;;;;;;;;6.00;5.50;;;;;-146.44;100.00;58906.56;5075838;28;45454;-69
2022/07/15 07:26:56;;;;;;;;;4.75;4.75;;;;;-146.44;100.00;58906.56;5076017;28;45355;-69
2022/07/15 07:29:24;;;;;;;;;6.75;6.75;;;;;-146.44;100.00;58906.56;5075910;28;45453;-69
2022/07/15 07:31:50;;;;;;;;;4.25;4.25;;;;;-146.44;100.00;58906.56;5075775;27;45343;-69
2022/07/15 07:34:17;;;;;;;;;4.00;4.00;;;;;-146.44;100.00;58906.56;5075854;28;45497;-69
2022/07/15 07:36:43;;;;;;;;;8.75;7.25;;;;;-146.44;100.00;58906.56;5075858;27;45396;-69
2022/07/15 07:39:09;;;;;;;;;4.50;4.50;;;;;-146.44;100.00;58906.56;5075971;27;45388;-69
2022/07/15 07:41:34;;;;;;;;;6.75;5.00;;;;;-146.44;100.00;58906.56;5075834;27;45551;-69
2022/07/15 07:44:00;;;;;;;;;5.75;4.25;;;;;-146.44;100.00;58906.56;5075672;28;46042;-69
2022/07/15 07:46:25;;;;;;;;;5.00;4.00;;;;;-146.44;100.00;58906.56;5075713;28;45414;-69
2022/07/15 07:48:50;;;;;;;;;5.00;5.00;;;;;-146.44;100.00;58906.56;5075584;28;45339;-69
2022/07/15 07:51:17;;;;;;;;;4.75;4.75;;;;;-146.44;100.00;58906.56;5075694;27;45631;-69
2022/07/15 07:53:43;;;;;;;;;4.50;3.75;;;;;-146.44;100.00;58906.56;5075381;28;45555;-69
2022/07/15 07:56:08;;;;;;;;;3.50;3.50;;;;;-146.44;100.00;58906.56;5075295;28;45467;-69
2022/07/15 07:58:34;;;;;;;;;5.25;5.25;;;;;-146.44;100.00;58906.56;5075603;28;45481;-69
2022/07/15 08:01:00;;;;;;;;;5.00;5.00;;;;;-146.44;100.00;58906.56;5075442;28;45418;-69
2022/07/15 08:03:27;;;;;;;;;4.50;4.50;;;;;-146.44;100.00;58906.56;5075342;28;45501;-69
2022/07/15 08:05:53;;;;;;;;;5.50;5.00;;;;;-146.44;100.00;58906.56;5075323;28;45409;-69
2022/07/15 08:08:20;;;;;;;;;4.00;4.00;;;;;-146.44;100.00;58906.56;5075424;28;45449;-69
2022/07/15 08:10:48;;;;;;;;;4.75;4.00;;;;;-146.44;100.00;58906.56;5075720;27;45389;-69
2022/07/15 08:13:15;;;;;;;;;4.75;4.25;;;;;-146.44;100.00;58906.56;5075162;28;46187;-69
2022/07/15 08:15:40;;;;;;;;;3.50;3.50;;;;;-146.44;100.00;58906.56;5075128;28;45479;-69
2022/07/15 08:18:06;;;;;;;;;5.00;4.00;;;;;-146.44;100.00;58906.56;5074168;28;45412;-69
2022/07/15 08:20:32;;;;;;;;;4.25;4.25;;;;;-146.44;100.00;58906.56;5075334;27;45524;-70
2022/07/15 08:23:01;;;;;;;;;4.50;4.00;;;;;-146.44;100.00;58906.56;5075088;27;45445;-69
2022/07/15 08:25:32;;;;;;;;;4.00;4.00;;;;;-146.44;100.00;58906.56;5076429;27;45480;-69
2022/07/15 08:27:59;;;;;;;;;4.00;4.00;;;;;-146.44;100.00;58906.56;5078781;27;45493;-69
2022/07/15 08:30:26;;;;;;;;;6.00;6.00;;;;;-146.44;100.00;58906.56;5078893;28;45542;-69
2022/07/15 08:32:51;;;;;;;;;2.00;2.00;;;;;-146.44;100.00;58906.56;5078779;28;45398;-69
2022/07/15 08:35:17;;;;;;;;;4.00;4.00;;;;;-146.44;100.00;58906.56;5078642;27;45446;-70
2022/07/15 08:37:42;;;;;;;;;5.25;5.25;;;;;-146.44;100.00;58906.56;5078767;28;45450;-69
2022/07/15 08:40:09;;;;;;;;;4.25;4.25;;;;;-146.44;100.00;58906.56;5078750;28;45440;-69
2022/07/15 08:42:35;;;;;;;;;4.00;4.00;;;;;-146.44;100.00;58906.56;5078658;28;45524;-69
2022/07/15 08:45:00;;;;;;;;;6.25;6.25;;;;;-146.44;100.00;58906.56;5078465;28;45549;-69
2022/07/15 08:47:29;;;;;;;;;6.00;6.00;;;;;-146.44;100.00;58906.56;5078680;28;45439;-69
2022/07/15 08:49:57;;;;;;;;;3.50;3.50;;;;;-146.44;100.00;58906.56;5078391;28;45406;-69
2022/07/15 08:52:24;;;;;;;;;4.75;3.00;;;;;-146.44;100.00;58906.56;5078261;28;45493;-69
2022/07/15 08:54:51;;;;;;;;;5.00;4.00;;;;;-146.44;100.00;58906.56;5078219;27;45484;-69
2022/07/15 08:57:17;;;;;;;;;5.25;5.00;;;;;-146.44;100.00;58906.56;5078281;27;45442;-69
2022/07/15 08:59:45;;;;;;;;;4.75;4.75;;;;;-146.44;100.00;58906.56;5078098;28;45625;-69
2022/07/15 09:02:12;;;;;;;;;4.75;4.75;;;;;-146.44;100.00;58906.56;5076769;28;47214;-69
2022/07/15 09:05:15;;;;;;;;;6.25;5.25;;;;;-146.44;100.00;58906.56;5078142;28;45471;-69
2022/07/15 09:08:02;;;;;;;;;5.00;3.50;;;;;-146.44;100.00;58906.56;5094128;27;45407;-69
2022/07/15 09:10:44;;;;;;;;;4.50;4.50;;;;;-146.44;100.00;58906.56;5078260;28;45575;-69
2022/07/15 09:13:30;;;;;;;;;5.25;4.25;;;;;-146.44;100.00;58906.56;5078088;28;45397;-69
2022/07/15 09:15:58;;;;;;;;;4.50;4.25;;;;;-146.44;100.00;58906.56;5077874;28;45466;-69
2022/07/15 09:18:36;;;;;;;;;3.50;3.50;;;;;-146.44;100.00;58906.56;5078083;28;45447;-70
2022/07/15 09:21:02;;;;;;;;;6.00;6.00;;;;;-146.44;100.00;58906.56;5077790;28;45567;-69
2022/07/15 09:23:29;;;;;;;;;7.25;7.00;;;;;-146.44;100.00;58906.56;5078026;28;45447;-69
2022/07/15 09:25:58;;;;;;;;;7.00;6.00;;;;;-146.44;100.00;58906.56;5077820;28;45416;-69
2022/07/15 09:28:36;;;;;;;;;4.00;4.00;;;;;-146.44;100.00;58906.56;5093705;27;45472;-69
2022/07/15 09:33:46;;;;;;;;;5.00;5.00;;;;;-146.44;100.00;58906.56;5077414;28;45416;-69
2022/07/15 09:36:21;;;;;;;;;4.00;4.00;;;;;-146.44;100.00;58906.56;5076326;27;45487;-69
2022/07/15 09:39:16;;;;;;;;;4.25;3.50;;;;;-146.44;100.00;58906.56;5077660;27;45410;-69
2022/07/15 09:41:43;;;;;;;;;4.25;3.00;;;;;-146.44;100.00;58906.56;5077146;28;45561;-69
2022/07/15 09:44:14;;;;;;;;;4.00;4.00;;;;;-146.44;100.00;58906.56;5077461;28;45449;-69
2022/07/15 09:46:49;;;;;;;;;4.25;4.00;;;;;-146.44;100.00;58906.56;5077614;28;45411;-69
2022/07/15 09:49:32;;;;;;;;;3.00;3.00;;;;;-146.44;100.00;58906.56;5077667;27;45568;-68
2022/07/15 09:52:16;;;;;;;;;5.00;2.50;;;;;-146.44;100.00;58906.56;5076124;28;45530;-68
2022/07/15 09:54:48;;;;;;;;;3.00;3.00;;;;;-146.44;100.00;58906.56;5077307;27;46310;-69
2022/07/15 09:57:19;;;;;;;;;2.00;2.00;;;;;-146.44;100.00;58906.56;5076090;28;45448;-70
2022/07/15 09:59:50;;;;;;;;;2.50;2.50;;;;;-146.44;100.00;58906.56;5075995;28;45475;-69
2022/07/15 10:02:16;;;;;;;;;6.00;5.00;;;;;-146.44;100.00;58906.56;5077638;28;45345;-68
2022/07/15 10:04:42;;;;;;;;;1.00;1.00;;;;;-146.44;100.00;58906.56;5077240;28;46856;-69
2022/07/15 10:07:11;;;;;;;;;2.00;2.00;;;;;-146.44;100.00;58906.56;5076000;28;45493;-69
2022/07/15 10:09:37;;;;;;;;;2.50;2.50;;;;;-146.44;100.00;58906.56;5077151;28;45394;-69
2022/07/15 10:12:09;;;;;;;;;1.75;1.75;;;;;-146.44;100.00;58906.56;5077167;28;45541;-70
2022/07/15 10:14:46;;;;;;;;;3.00;3.00;;;;;-146.44;100.00;58906.56;5076976;27;45898;-70
2022/07/15 10:17:27;;;;;;;;;4.00;2.75;;;;;-146.44;100.00;58906.56;5077108;28;45497;-69
2022/07/15 10:20:10;;;;;;;;;2.00;2.00;;;;;-146.44;100.00;58906.56;5077584;28;46177;-69
2022/07/15 10:22:42;;;;;;;;;3.75;3.75;;;;;-146.44;100.00;58906.56;5077088;27;45447;-69
2022/07/15 10:25:10;;;;;;;;;2.00;2.00;;;;;-146.44;100.00;58906.56;5076789;28;45393;-69
2022/07/15 10:27:36;;;;;;;;;3.00;3.00;;;;;-146.44;100.00;58906.56;5077015;28;45463;-69
2022/07/15 10:30:06;;;;;;;;;4.00;4.00;;;;;-146.44;100.00;58906.56;5077249;28;45420;-69
2022/07/15 10:33:03;;;;;;;;;3.00;3.00;;;;;-146.44;100.00;58906.56;5076743;28;45458;-69
2022/07/15 10:35:41;;;;;;;;;4.00;2.00;;;;;-146.44;100.00;58906.56;5076795;28;45360;-69
2022/07/15 10:38:38;;;;;;;;;2.25;2.25;;;;;-146.44;100.00;58906.56;5076798;27;45378;-69
2022/07/15 10:41:12;;;;;;;;;2.00;2.00;;;;;-146.44;100.00;58906.56;5076869;27;45387;-69
2022/07/15 10:43:38;;;;;;;;;3.00;3.00;;;;;-146.44;100.00;58906.56;5076557;28;45410;-70
2022/07/15 10:46:28;;;;;;;;;2.00;2.00;;;;;-146.44;100.00;58906.56;5076514;28;45490;-69
2022/07/15 10:49:13;;;;;;;;;3.00;1.60;;;;;-146.44;100.00;58906.56;5075970;28;45453;-68
2022/07/15 10:51:39;;;;;;;;;2.00;2.00;;;;;-146.44;100.00;58906.56;5076633;28;45341;-70
2022/07/15 10:54:27;;;;;;;;;3.25;3.25;;;;;-146.44;100.00;58906.56;5076442;27;45631;-69
2022/07/15 10:56:53;;;;;;;;;2.75;2.75;;;;;-146.44;100.00;58906.56;5076050;28;46275;-69
2022/07/15 10:59:21;;;;;;;;;3.25;2.00;;;;;-146.44;100.00;58906.56;5076166;28;45484;-69
2022/07/15 11:01:50;;;;;;;;;2.00;2.00;;;;;-146.44;100.00;58906.56;5076364;27;45486;-70
2022/07/15 11:04:18;;;;;;;;;1.50;1.50;;;;;-146.44;100.00;58906.56;5076230;28;45397;-69
2022/07/15 11:07:10;;;;;;;;;2.00;2.00;;;;;-146.44;100.00;58906.56;5076088;27;46365;-69
2022/07/15 11:09:55;;;;;;;;;3.00;3.00;;;;;-146.44;100.00;58906.56;5075013;28;45391;-71
2022/07/15 11:12:49;;;;;;;;;2.00;2.00;;;;;-146.44;100.00;58906.56;5076448;28;45410;-69
2022/07/15 11:15:19;;;;;;;;;2.25;2.25;;;;;-146.44;100.00;58906.56;5075485;27;45365;-69
2022/07/15 11:17:50;;;;;;;;;1.00;1.00;;;;;-146.44;100.00;58906.56;5075833;27;46295;-68
2022/07/15 11:20:24;;;;;;;;;2.20;2.20;;;;;-146.44;100.00;58906.56;5076158;28;45458;-69